Time;durP1;ratioP1;P1;durP2;ratioP2;P2;SDS_P1;SDS_P2;PMS_P1;PMS_P2;Temp;Humidity;BMP_temperature;BMP_pressure;BME280_temperature;BME280_humidity;BME280_pressure;Samples;Min_cycle;Max_cycle;Signal;HPM_P1;HPM_P2
2021/04/10 00:00:06;;;;;;;28.50;16.07;;;;;;;2.30;57.32;100410.56;1701178;84;21664;-70
2021/04/10 00:02:35;;;;;;;32.53;16.07;;;;;;;2.33;57.18;100410.50;1701588;84;21188;-70
2021/04/10 00:05:06;;;;;;;26.65;14.63;;;;;;;2.37;57.05;100409.98;1700940;82;21187;-70
2021/04/10 00:07:33;;;;;;;25.20;14.60;;;;;;;2.40;56.93;100404.66;1706727;83;21198;-71
2021/04/10 00:10:07;;;;;;;24.27;15.05;;;;;;;2.39;56.88;100409.04;1711103;83;21101;-70
2021/04/10 00:12:43;;;;;;;24.63;14.25;;;;;;;2.48;56.73;100398.78;1779009;79;22973;-69
2021/04/10 00:15:14;;;;;;;24.60;14.63;;;;;;;2.43;56.70;100398.92;1752675;81;21154;-69
2021/04/10 00:17:42;;;;;;;23.15;13.30;;;;;;;2.44;56.67;100403.25;1752408;82;21119;-69
2021/04/10 00:20:17;;;;;;;24.30;13.45;;;;;;;2.42;56.62;100399.81;1735840;82;21310;-69
2021/04/10 00:22:45;;;;;;;21.15;13.78;;;;;;;2.44;56.56;100396.72;1750542;82;21198;-69
2021/04/10 00:25:13;;;;;;;21.25;13.08;;;;;;;2.43;56.52;100397.61;1735639;81;21158;-69
2021/04/10 00:27:42;;;;;;;23.18;13.58;;;;;;;2.40;56.62;100404.20;1747362;82;21658;-69
2021/04/10 00:30:13;;;;;;;23.92;14.00;;;;;;;2.43;56.87;100411.97;1738866;82;21134;-69
2021/04/10 00:32:41;;;;;;;24.90;13.35;;;;;;;2.38;57.27;100415.16;1725178;82;21163;-69
2021/04/10 00:35:10;;;;;;;22.13;13.08;;;;;;;2.37;57.12;100412.12;1750694;82;21178;-71
2021/04/10 00:37:38;;;;;;;23.47;13.03;;;;;;;2.34;57.03;100399.17;1734201;81;21193;-69
2021/04/10 00:40:08;;;;;;;24.05;13.75;;;;;;;2.37;56.93;100400.84;1744525;82;21560;-69
2021/04/10 00:42:36;;;;;;;22.70;13.00;;;;;;;2.36;56.92;100413.02;1734790;81;21265;-70
2021/04/10 00:45:05;;;;;;;21.55;12.78;;;;;;;2.35;56.98;100402.63;1730293;82;21265;-70
2021/04/10 00:47:33;;;;;;;21.73;13.43;;;;;;;2.36;57.00;100401.73;1752085;82;21611;-69
2021/04/10 00:50:01;;;;;;;22.13;13.72;;;;;;;2.31;56.95;100407.06;1740546;81;21146;-69
2021/04/10 00:52:30;;;;;;;23.15;13.08;;;;;;;2.35;56.96;100411.30;1723824;82;21147;-69
2021/04/10 00:54:57;;;;;;;22.75;12.47;;;;;;;2.31;57.05;100411.44;1744832;82;21162;-69
2021/04/10 00:57:24;;;;;;;20.62;13.08;;;;;;;2.27;57.29;100404.13;1752527;82;21632;-69
2021/04/10 00:59:51;;;;;;;22.87;12.53;;;;;;;2.21;57.51;100403.84;1745767;82;21195;-69
2021/04/10 01:02:20;;;;;;;20.95;13.00;;;;;;;2.20;57.39;100405.16;1745403;82;21571;-69
2021/04/10 01:04:47;;;;;;;22.22;13.30;;;;;;;2.23;57.16;100409.02;1738411;81;21555;-69
2021/04/10 01:07:15;;;;;;;24.02;12.07;;;;;;;2.22;57.11;100420.35;1709107;83;21318;-69
2021/04/10 01:09:48;;;;;;;20.25;12.25;;;;;;;2.23;57.44;100416.85;1679232;85;21348;-69
2021/04/10 01:12:43;;;;;;;18.77;11.12;;;;;;;2.17;57.56;100419.61;1711594;83;21308;-70
2021/04/10 01:15:54;;;;;;;21.80;12.40;;;;;;;2.12;57.66;100406.23;1775761;79;23486;-69
2021/04/10 01:18:36;;;;;;;21.87;11.97;;;;;;;2.01;57.69;100410.86;1740251;80;21175;-68
2021/04/10 01:21:24;;;;;;;20.23;11.97;;;;;;;1.99;57.65;100416.55;1739068;80;21135;-68
2021/04/10 01:24:11;;;;;;;18.17;11.40;;;;;;;1.94;57.71;100413.19;1757839;80;21163;-68
2021/04/10 01:27:21;;;;;;;19.30;11.50;;;;;;;1.97;57.66;100422.27;1711112;83;21143;-68
2021/04/10 01:30:11;;;;;;;19.62;11.50;;;;;;;1.92;57.64;100411.93;1664620;86;21302;-69
2021/04/10 01:33:03;;;;;;;18.23;11.40;;;;;;;1.91;57.66;100416.73;1670560;83;21204;-69
2021/04/10 01:35:38;;;;;;;17.80;10.58;;;;;;;1.87;57.75;100418.17;1671469;84;21330;-68
2021/04/10 01:38:11;;;;;;;18.80;11.78;;;;;;;1.93;57.68;100411.05;1670552;86;21189;-69
2021/04/10 01:40:40;;;;;;;23.87;11.80;;;;;;;1.90;57.72;100421.99;1682906;83;21648;-68
2021/04/10 01:43:08;;;;;;;19.30;11.28;;;;;;;1.96;57.38;100421.85;1694178;83;21191;-67
2021/04/10 01:45:35;;;;;;;18.48;11.35;;;;;;;1.93;57.34;100415.39;1670624;86;21201;-68
2021/04/10 01:48:06;;;;;;;19.85;11.20;;;;;;;1.94;57.27;100419.29;1721411;82;21620;-68
2021/04/10 01:50:35;;;;;;;15.50;10.38;;;;;;;1.90;57.29;100420.23;1694379;84;21696;-69
2021/04/10 01:53:06;;;;;;;18.62;10.85;;;;;;;1.92;57.33;100417.61;1681134;83;21782;-69
2021/04/10 01:55:35;;;;;;;18.10;10.63;;;;;;;1.92;57.27;100428.05;1688680;83;21612;-69
2021/04/10 01:58:03;;;;;;;15.38;10.50;;;;;;;1.87;57.33;100416.86;1672275;86;21277;-70
2021/04/10 02:00:35;;;;;;;16.73;10.60;;;;;;;1.92;57.28;100420.22;1698555;83;21143;-69
2021/04/10 02:03:03;;;;;;;18.50;10.58;;;;;;;1.86;57.32;100415.98;1711855;81;21139;-69
2021/04/10 02:05:31;;;;;;;17.90;10.93;;;;;;;1.86;57.33;100415.98;1712162;83;21354;-69
2021/04/10 02:08:15;;;;;;;;;;;;;;;1.84;57.51;100418.22;1690102;84;21206;-69
2021/04/10 02:10:43;;;;;;;19.02;11.00;;;;;;;1.85;57.70;100418.64;1678577;84;20213;-69
2021/04/10 02:13:22;;;;;;;20.37;11.35;;;;;;;1.79;57.66;100420.50;1780240;79;23069;-69
2021/04/10 02:15:51;;;;;;;20.17;11.33;;;;;;;1.76;57.75;100422.31;1744202;82;21123;-69
2021/04/10 02:18:20;;;;;;;20.62;11.33;;;;;;;1.78;57.84;100420.54;1735390;81;21296;-68
2021/04/10 02:20:49;;;;;;;20.02;11.28;;;;;;;1.74;57.94;100419.75;1747333;82;21285;-68
2021/04/10 02:23:19;;;;;;;18.07;10.30;;;;;;;1.77;57.74;100423.58;1729736;82;21592;-69
2021/04/10 02:25:49;;;;;;;19.00;10.55;;;;;;;1.74;57.71;100421.05;1722997;83;21131;-68
2021/04/10 02:28:17;;;;;;;16.60;10.10;;;;;;;1.76;57.60;100417.94;1747664;82;21553;-69
2021/04/10 02:30:46;;;;;;;16.90;10.35;;;;;;;1.74;57.58;100416.27;1723326;82;21131;-68
2021/04/10 02:33:26;;;;;;;16.25;9.88;;;;;;;1.73;57.58;100415.42;1732300;82;21150;-68
2021/04/10 02:35:56;;;;;;;19.65;10.90;;;;;;;1.72;57.62;100412.39;1734381;82;21262;-68
2021/04/10 02:38:26;;;;;;;17.17;10.25;;;;;;;1.74;57.67;100417.56;1753149;82;21104;-68
2021/04/10 02:41:08;;;;;;;19.20;10.75;;;;;;;1.70;57.76;100423.33;1728088;82;21194;-68
2021/04/10 02:43:38;;;;;;;16.87;10.10;;;;;;;1.70;57.81;100422.45;1732879;82;21162;-68
2021/04/10 02:46:06;;;;;;;17.95;10.15;;;;;;;1.68;57.64;100415.97;1725102;82;21127;-68
2021/04/10 02:48:38;;;;;;;18.73;9.65;;;;;;;1.69;57.62;100416.39;1695732;83;21162;-68
2021/04/10 02:51:07;;;;;;;17.75;9.73;;;;;;;1.72;57.61;100426.73;1728358;82;21139;-68
2021/04/10 02:53:37;;;;;;;15.65;9.65;;;;;;;1.66;57.76;100410.38;1746638;82;21158;-68
2021/04/10 02:56:04;;;;;;;14.15;9.40;;;;;;;1.68;57.62;100419.04;1729000;82;21135;-68
2021/04/10 02:58:32;;;;;;;14.63;9.60;;;;;;;1.65;57.63;100421.27;1742636;82;22073;-68
2021/04/10 03:01:00;;;;;;;14.43;9.33;;;;;;;1.68;57.47;100414.67;1697116;82;21679;-68
2021/04/10 03:03:32;;;;;;;19.23;10.13;;;;;;;1.68;57.47;100414.67;1725043;82;21265;-68
2021/04/10 03:06:00;;;;;;;15.90;9.35;;;;;;;1.70;57.46;100415.93;1721615;83;21132;-68
2021/04/10 03:08:28;;;;;;;14.87;9.30;;;;;;;1.77;57.34;100423.58;1721505;83;21705;-69
2021/04/10 03:10:59;;;;;;;14.85;9.55;;;;;;;1.78;57.31;100422.69;1723672;82;21729;-69
2021/04/10 03:13:27;;;;;;;15.68;9.70;;;;;;;1.83;57.10;100434.33;1740536;81;21199;-69
2021/04/10 03:15:58;;;;;;;16.02;8.98;;;;;;;1.84;56.96;100431.27;1723848;82;21175;-69
2021/04/10 03:18:26;;;;;;;16.27;9.28;;;;;;;1.86;56.84;100429.48;1690047;84;21191;-69
2021/04/10 03:20:55;;;;;;;15.53;9.60;;;;;;;1.86;56.93;100436.01;1711657;82;21163;-69
2021/04/10 03:23:23;;;;;;;18.82;9.48;;;;;;;1.87;56.90;100440.34;1723530;82;21167;-69
2021/04/10 03:25:52;;;;;;;16.55;9.43;;;;;;;1.89;56.88;100446.36;1738612;82;21155;-69
2021/04/10 03:28:20;;;;;;;16.17;9.40;;;;;;;1.85;56.96;100438.20;1739084;82;21309;-69
2021/04/10 03:30:48;;;;;;;17.12;9.50;;;;;;;1.90;56.91;100445.47;1723541;82;21602;-69
2021/04/10 03:33:19;;;;;;;16.07;9.63;;;;;;;1.87;56.91;100440.34;1710469;82;21188;-69
2021/04/10 03:35:46;;;;;;;15.88;9.63;;;;;;;1.89;56.84;100447.66;1710684;82;21308;-69
2021/04/10 03:38:14;;;;;;;19.17;10.13;;;;;;;1.89;56.82;100447.66;1711997;82;21293;-68
2021/04/10 03:40:41;;;;;;;22.48;11.90;;;;;;;1.92;56.81;100441.09;1730272;82;21620;-69
2021/04/10 03:43:08;;;;;;;17.15;10.25;;;;;;;1.97;56.74;100441.83;1739312;82;21318;-69
2021/04/10 03:45:45;;;;;;;18.90;12.50;;;;;;;2.03;56.71;100445.58;1801195;79;28064;-69
2021/04/10 03:48:15;;;;;;;16.25;10.72;;;;;;;2.24;56.43;100440.76;1786643;80;21265;-68
2021/04/10 03:50:44;;;;;;;17.35;10.23;;;;;;;2.48;55.98;100447.55;1781650;80;21324;-68
2021/04/10 03:53:11;;;;;;;20.90;11.12;;;;;;;2.62;55.89;100440.20;1787425;80;21150;-69
2021/04/10 03:55:39;;;;;;;17.17;10.08;;;;;;;2.86;55.50;100439.14;1787502;80;21563;-68
2021/04/10 03:58:08;;;;;;;20.82;10.32;;;;;;;3.19;54.85;100435.19;1787651;80;21591;-68
2021/04/10 04:00:37;;;;;;;14.60;8.88;;;;;;;3.58;54.08;100435.77;1786909;80;21527;-68
2021/04/10 04:03:05;;;;;;;17.23;9.65;;;;;;;3.96;53.39;100438.07;1787535;80;21186;-69
2021/04/10 04:05:32;;;;;;;16.10;9.28;;;;;;;4.30;52.39;100430.44;1759838;80;21215;-69
2021/04/10 04:07:59;;;;;;;16.40;9.98;;;;;;;4.56;51.84;100428.69;1756715;82;21154;-69
2021/04/10 04:10:26;;;;;;;16.62;11.30;;;;;;;4.83;51.32;100433.41;1756645;81;21186;-69
2021/04/10 04:12:54;;;;;;;16.57;10.18;;;;;;;5.14;50.54;100430.14;1756416;82;21146;-68
2021/04/10 04:15:21;;;;;;;21.80;13.60;;;;;;;5.43;49.83;100432.98;1756634;82;21575;-69
2021/04/10 04:17:48;;;;;;;20.80;11.80;;;;;;;5.66;49.37;100428.16;1756392;82;21324;-69
2021/04/10 04:20:15;;;;;;;24.25;12.90;;;;;;;5.93;48.89;100437.16;1747246;82;21590;-69
2021/04/10 04:22:43;;;;;;;16.42;10.13;;;;;;;6.15;48.39;100437.20;1756603;82;21316;-69
2021/04/10 04:25:12;;;;;;;20.20;10.05;;;;;;;6.38;48.00;100444.13;1756367;82;21186;-69
2021/04/10 04:27:41;;;;;;;16.48;9.88;;;;;;;6.63;47.35;100431.25;1756267;81;21127;-69
2021/04/10 04:30:10;;;;;;;16.70;9.75;;;;;;;6.89;46.78;100435.83;1741003;82;21685;-69
2021/04/10 04:32:37;;;;;;;22.85;11.45;;;;;;;7.16;46.38;100433.77;1738248;82;21347;-69
2021/04/10 04:35:05;;;;;;;23.45;14.05;;;;;;;7.44;45.76;100436.42;1725553;83;21705;-70
2021/04/10 04:37:34;;;;;;;24.20;13.60;;;;;;;7.64;45.52;100433.34;1695000;85;21181;-70
2021/04/10 04:40:05;;;;;;;18.82;11.40;;;;;;;7.80;44.85;100428.18;1695538;83;21116;-70
2021/04/10 04:42:32;;;;;;;17.60;11.63;;;;;;;7.92;44.57;100435.50;1693265;85;21567;-70
2021/04/10 04:45:00;;;;;;;16.80;10.98;;;;;;;7.98;44.02;100441.80;1686411;85;21324;-70
2021/04/10 04:47:27;;;;;;;18.40;11.95;;;;;;;7.98;44.01;100436.53;1743251;82;21202;-70
2021/04/10 04:49:55;;;;;;;18.23;11.33;;;;;;;7.97;44.04;100438.77;1734740;82;21623;-70
2021/04/10 04:52:22;;;;;;;21.30;11.60;;;;;;;8.03;43.98;100435.84;1705723;83;21124;-69
2021/04/10 04:54:52;;;;;;;17.40;11.10;;;;;;;8.12;44.00;100431.91;1675843;85;21180;-70
2021/04/10 04:57:20;;;;;;;26.45;15.53;;;;;;;8.25;43.95;100431.28;1742665;82;21174;-70
2021/04/10 04:59:47;;;;;;;20.82;11.20;;;;;;;8.41;44.29;100434.02;1741709;82;21622;-70
2021/04/10 05:02:15;;;;;;;29.98;15.70;;;;;;;8.63;43.32;100437.75;1740977;82;21174;-70
2021/04/10 05:04:42;;;;;;;24.12;13.20;;;;;;;8.75;43.32;100429.22;1706429;84;21160;-70
2021/04/10 05:07:09;;;;;;;21.97;12.43;;;;;;;8.88;43.14;100429.91;1675377;85;21159;-69
2021/04/10 05:09:36;;;;;;;18.82;11.90;;;;;;;9.07;42.61;100425.83;1739863;82;21165;-69
2021/04/10 05:12:07;;;;;;;16.25;9.75;;;;;;;9.20;42.66;100435.27;1742804;82;21198;-69
2021/04/10 05:14:34;;;;;;;17.92;11.00;;;;;;;9.37;42.34;100429.06;1742732;82;21203;-70
2021/04/10 05:17:04;;;;;;;17.30;10.55;;;;;;;9.54;42.36;100426.36;1741458;82;21163;-69
2021/04/10 05:19:32;;;;;;;16.52;11.03;;;;;;;9.73;41.68;100422.23;1739162;82;21726;-70
2021/04/10 05:21:59;;;;;;;14.78;10.05;;;;;;;9.89;41.80;100430.61;1740906;82;21163;-70
2021/04/10 05:24:27;;;;;;;18.92;10.65;;;;;;;10.11;41.39;100431.06;1742738;82;21195;-69
2021/04/10 05:26:54;;;;;;;13.88;9.25;;;;;;;10.30;40.57;100427.37;1742919;82;21136;-69
2021/04/10 05:29:21;;;;;;;13.13;9.35;;;;;;;10.42;40.95;100425.82;1743042;82;21608;-69
2021/04/10 05:31:50;;;;;;;14.20;9.88;;;;;;;10.52;40.08;100431.42;1735822;82;21552;-67
2021/04/10 05:34:17;;;;;;;14.40;9.48;;;;;;;10.61;40.44;100423.80;1740969;82;21115;-68
2021/04/10 05:36:44;;;;;;;14.50;9.43;;;;;;;10.78;39.99;100433.81;1742797;82;21754;-68
2021/04/10 05:39:12;;;;;;;15.10;10.03;;;;;;;10.94;40.27;100429.78;1740746;82;21269;-68
2021/04/10 05:41:39;;;;;;;44.45;27.67;;;;;;;11.06;39.97;100428.17;1737776;82;21174;-68
2021/04/10 05:44:06;;;;;;;23.67;15.40;;;;;;;11.14;39.74;100429.41;1732745;82;21135;-69
2021/04/10 05:46:33;;;;;;;16.62;10.70;;;;;;;11.06;39.63;100438.77;1734449;82;21147;-67
2021/04/10 05:49:01;;;;;;;16.57;10.35;;;;;;;10.92;39.71;100432.98;1737102;82;21301;-67
2021/04/10 05:51:28;;;;;;;16.67;9.73;;;;;;;10.74;40.33;100429.66;1742334;82;21663;-67
2021/04/10 05:53:55;;;;;;;17.42;9.90;;;;;;;10.67;40.72;100436.28;1741044;82;21179;-67
2021/04/10 05:56:22;;;;;;;14.73;10.20;;;;;;;10.66;41.24;100430.13;1742712;82;21139;-67
2021/04/10 05:58:49;;;;;;;13.55;9.30;;;;;;;10.71;40.71;100437.80;1732958;82;21300;-67
2021/04/10 06:01:17;;;;;;;16.30;9.85;;;;;;;10.74;39.99;100435.82;1704621;84;21179;-67
2021/04/10 06:03:44;;;;;;;16.45;9.25;;;;;;;10.72;40.43;100435.53;1675492;84;21640;-67
2021/04/10 06:06:12;;;;;;;14.10;9.50;;;;;;;10.73;40.78;100438.53;1737957;82;21180;-67
2021/04/10 06:08:39;;;;;;;14.13;8.68;;;;;;;10.84;40.85;100429.48;1725621;82;21618;-67
2021/04/10 06:11:06;;;;;;;12.65;8.70;;;;;;;10.97;39.96;100436.20;1732351;82;21172;-67
2021/04/10 06:13:33;;;;;;;15.60;9.90;;;;;;;10.98;39.77;100436.13;1742758;82;21505;-67
2021/04/10 06:16:07;;;;;;;13.35;8.90;;;;;;;11.04;39.81;100435.38;1742323;82;21178;-68
2021/04/10 06:18:34;;;;;;;14.05;9.08;;;;;;;11.09;40.14;100437.27;1724564;82;21166;-67
2021/04/10 06:21:02;;;;;;;15.88;9.18;;;;;;;11.20;40.04;100434.81;1731830;82;21615;-67
2021/04/10 06:23:29;;;;;;;12.80;8.65;;;;;;;11.29;39.10;100438.20;1732753;82;21981;-67
2021/04/10 06:25:56;;;;;;;16.50;8.95;;;;;;;11.34;39.65;100430.44;1729304;82;21469;-67
2021/04/10 06:28:24;;;;;;;14.23;8.45;;;;;;;11.43;39.36;100439.12;1706559;84;21148;-67
2021/04/10 06:30:51;;;;;;;13.00;8.28;;;;;;;11.51;38.88;100435.98;1674123;86;21196;-68
2021/04/10 06:33:21;;;;;;;11.83;7.95;;;;;;;11.53;38.33;100441.56;1741561;82;21297;-68
2021/04/10 06:35:48;;;;;;;12.68;8.38;;;;;;;11.55;38.90;100437.03;1742201;82;21178;-68
2021/04/10 06:38:15;;;;;;;13.32;8.08;;;;;;;11.62;38.34;100436.16;1742067;82;21324;-68
2021/04/10 06:40:44;;;;;;;13.45;8.05;;;;;;;11.64;38.23;100439.09;1724575;82;21635;-68
2021/04/10 06:43:12;;;;;;;12.35;7.58;;;;;;;11.62;37.83;100438.81;1742596;82;21198;-68
2021/04/10 06:45:43;;;;;;;19.57;10.90;;;;;;;11.55;37.43;100438.35;1740749;82;21567;-69
2021/04/10 06:48:13;;;;;;;13.83;8.98;;;;;;;11.49;38.06;100433.44;1747700;82;21697;-68
2021/04/10 06:50:42;;;;;;;13.72;7.83;;;;;;;11.51;38.19;100431.55;1750501;82;21179;-68
2021/04/10 06:53:17;;;;;;;12.10;7.92;;;;;;;11.58;37.86;100435.50;1750740;81;21102;-69
2021/04/10 06:55:49;;;;;;;14.87;8.58;;;;;;;11.63;38.54;100432.08;1746234;82;21100;-68
2021/04/10 06:58:28;;;;;;;11.75;8.13;;;;;;;11.73;37.26;100432.84;1749404;82;21544;-68
2021/04/10 07:00:56;;;;;;;13.10;7.78;;;;;;;11.68;37.32;100432.28;1750744;82;21285;-68
2021/04/10 07:03:23;;;;;;;13.35;7.60;;;;;;;11.66;38.30;100436.81;1750949;82;21613;-68
2021/04/10 07:05:53;;;;;;;12.70;8.23;;;;;;;11.72;37.82;100443.05;1750165;82;21146;-68
2021/04/10 07:08:23;;;;;;;13.72;8.23;;;;;;;11.78;37.66;100439.53;1727044;82;21174;-69
2021/04/10 07:10:51;;;;;;;13.60;8.10;;;;;;;11.86;37.77;100438.20;1750919;82;21324;-69
2021/04/10 07:13:18;;;;;;;12.60;8.43;;;;;;;11.91;37.43;100436.09;1750675;82;21154;-68
2021/04/10 07:15:47;;;;;;;14.43;9.20;;;;;;;11.93;37.31;100435.50;1726070;82;21131;-69
2021/04/10 07:18:15;;;;;;;12.40;7.47;;;;;;;11.96;37.57;100442.81;1658939;85;21148;-68
2021/04/10 07:20:44;;;;;;;14.33;8.40;;;;;;;12.01;37.52;100431.05;1682655;85;21132;-68
2021/04/10 07:23:13;;;;;;;15.05;7.58;;;;;;;12.06;37.76;100441.75;1692678;85;21311;-68
2021/04/10 07:25:43;;;;;;;11.60;7.72;;;;;;;12.15;37.79;100438.10;1712386;84;21131;-68
2021/04/10 07:28:31;;;;;;;14.30;8.68;;;;;;;12.23;37.67;100432.67;1686393;84;21165;-69
2021/04/10 07:31:06;;;;;;;11.97;7.67;;;;;;;12.31;37.61;100439.28;1657323;85;21175;-68
2021/04/10 07:33:38;;;;;;;13.98;8.18;;;;;;;12.36;37.03;100433.19;1697772;84;21280;-68
2021/04/10 07:36:08;;;;;;;37.10;9.48;;;;;;;12.38;37.21;100435.25;1669179;85;21114;-69
2021/04/10 07:38:38;;;;;;;13.80;8.00;;;;;;;12.39;37.33;100436.95;1683239;85;21121;-69
2021/04/10 07:41:19;;;;;;;10.65;7.58;;;;;;;12.41;36.59;100433.73;1664625;86;21150;-68
2021/04/10 07:43:46;;;;;;;13.78;7.53;;;;;;;12.40;36.75;100432.02;1664537;85;21187;-69
2021/04/10 07:46:24;;;;;;;11.30;7.53;;;;;;;12.32;36.22;100439.17;1685605;84;21188;-69
2021/04/10 07:49:11;;;;;;;10.28;7.65;;;;;;;12.26;37.34;100437.79;1738615;82;21122;-68
2021/04/10 07:51:56;;;;;;;12.15;7.47;;;;;;;12.29;37.62;100434.08;1736231;82;21172;-69
2021/04/10 07:54:34;;;;;;;11.65;8.00;;;;;;;12.27;36.65;100427.53;1715495;82;21147;-68
2021/04/10 07:57:04;;;;;;;16.87;8.15;;;;;;;12.19;36.70;100433.00;1704456;84;21092;-68
2021/04/10 07:59:47;;;;;;;10.75;7.75;;;;;;;12.23;37.32;100436.65;1675101;86;21146;-69
2021/04/10 08:02:15;;;;;;;17.70;8.23;;;;;;;12.23;35.76;100427.37;1739132;82;21127;-68
2021/04/10 08:05:00;;;;;;;19.32;12.23;;;;;;;12.15;37.19;100433.67;1739395;82;21300;-67
2021/04/10 08:07:30;;;;;;;17.15;9.00;;;;;;;12.19;36.98;100415.27;1729177;82;21186;-68
2021/04/10 08:10:00;;;;;;;11.70;7.83;;;;;;;12.25;37.24;100427.26;1723796;82;21315;-68
2021/04/10 08:12:36;;;;;;;12.05;7.28;;;;;;;12.32;36.94;100426.40;1728132;82;21146;-68
2021/04/10 08:15:06;;;;;;;10.95;7.45;;;;;;;12.39;35.11;100431.64;1704607;84;21310;-68
2021/04/10 08:17:40;;;;;;;11.08;7.08;;;;;;;12.42;35.82;100426.16;1670828;86;21165;-68
2021/04/10 08:20:27;;;;;;;14.30;7.47;;;;;;;12.49;36.07;100427.41;1737291;82;21155;-68
2021/04/10 08:23:19;;;;;;;11.78;8.28;;;;;;;12.50;35.91;100420.33;1726925;82;21276;-68
2021/04/10 08:25:46;;;;;;;10.53;7.08;;;;;;;12.45;34.44;100427.26;1706289;84;21306;-68
2021/04/10 08:28:14;;;;;;;14.63;7.17;;;;;;;12.37;34.72;100418.98;1675456;86;21679;-68
2021/04/10 08:30:46;;;;;;;11.73;7.00;;;;;;;12.35;35.16;100415.57;1699292;84;21202;-68
2021/04/10 08:33:13;;;;;;;12.03;7.53;;;;;;;12.42;34.39;100419.52;1663282;85;21154;-68
2021/04/10 08:35:41;;;;;;;10.98;7.35;;;;;;;12.46;34.70;100429.80;1740290;82;21560;-68
2021/04/10 08:38:08;;;;;;;11.57;7.40;;;;;;;12.49;35.04;100423.93;1742890;82;21219;-68
2021/04/10 08:40:35;;;;;;;12.05;7.55;;;;;;;12.53;35.43;100418.32;1745189;82;21135;-68
2021/04/10 08:43:03;;;;;;;11.33;7.08;;;;;;;12.64;35.39;100419.39;1740912;82;21122;-68
2021/04/10 08:45:33;;;;;;;11.20;7.03;;;;;;;12.72;34.58;100416.56;1741210;82;21301;-68
2021/04/10 08:48:04;;;;;;;11.60;7.65;;;;;;;12.73;34.44;100409.47;1750911;82;21174;-68
2021/04/10 08:50:37;;;;;;;9.55;6.70;;;;;;;12.78;34.34;100416.63;1750230;82;21139;-68
2021/04/10 08:53:10;;;;;;;10.85;7.12;;;;;;;12.77;33.72;100411.81;1750966;82;21158;-68
2021/04/10 08:55:41;;;;;;;17.25;9.30;;;;;;;12.78;35.07;100409.50;1750931;82;21320;-68
2021/04/10 08:58:30;;;;;;;11.65;7.35;;;;;;;12.87;34.99;100415.98;1750943;82;21119;-68
2021/04/10 09:01:00;;;;;;;10.32;7.15;;;;;;;12.92;33.84;100416.52;1750664;82;21280;-68
2021/04/10 09:03:49;;;;;;;10.10;7.00;;;;;;;12.98;33.73;100411.27;1748668;80;21419;-68
2021/04/10 09:06:34;;;;;;;11.73;7.78;;;;;;;13.01;33.55;100407.55;1750904;82;21162;-68
2021/04/10 09:09:18;;;;;;;11.30;8.00;;;;;;;12.94;34.54;100405.33;1750908;82;21143;-70
2021/04/10 09:11:48;;;;;;;10.15;7.08;;;;;;;13.01;34.68;100416.84;1750705;82;21326;-69
2021/04/10 09:14:43;;;;;;;12.75;7.42;;;;;;;13.09;34.61;100410.50;1750681;82;21178;-69
2021/04/10 09:17:14;;;;;;;11.03;7.17;;;;;;;13.16;34.55;100405.60;1722944;82;21131;-69
2021/04/10 09:19:41;;;;;;;12.43;7.60;;;;;;;13.27;34.79;100404.36;1750712;82;21159;-70
2021/04/10 09:22:16;;;;;;;10.45;7.10;;;;;;;13.34;34.11;100402.11;1750549;81;21610;-69
2021/04/10 09:24:47;;;;;;;13.10;7.62;;;;;;;13.34;33.46;100399.45;1751175;82;21559;-70
2021/04/10 09:27:24;;;;;;;13.43;7.45;;;;;;;13.33;33.85;100401.77;1748989;82;21134;-70
2021/04/10 09:30:05;;;;;;;14.80;10.23;;;;;;;13.28;33.41;100393.63;1741859;82;22222;-69
2021/04/10 09:32:44;;;;;;;17.35;10.10;;;;;;;13.18;34.13;100389.92;1750479;82;21296;-70
2021/04/10 09:35:14;;;;;;;10.68;6.83;;;;;;;13.11;33.90;100397.98;1750940;81;21520;-69
2021/04/10 09:37:46;;;;;;;22.87;8.20;;;;;;;13.07;34.05;100391.20;1750898;82;21304;-69
2021/04/10 09:40:27;;;;;;;12.55;6.75;;;;;;;13.09;33.94;100389.27;1750351;82;21122;-69
2021/04/10 09:43:06;;;;;;;16.23;6.72;;;;;;;13.15;34.11;100390.66;1747804;82;21126;-69
2021/04/10 09:45:34;;;;;;;10.23;6.75;;;;;;;13.20;34.11;100389.35;1748971;82;21199;-70
2021/04/10 09:48:10;;;;;;;11.57;6.87;;;;;;;13.30;33.63;100390.88;1750424;82;21146;-70
2021/04/10 09:50:44;;;;;;;23.32;7.22;;;;;;;13.37;34.59;100389.98;1750737;82;21146;-70
2021/04/10 09:53:15;;;;;;;11.40;7.12;;;;;;;13.48;33.79;100380.77;1750742;82;21308;-69
2021/04/10 09:55:49;;;;;;;31.25;7.50;;;;;;;13.55;33.42;100377.17;1750494;81;21111;-68
2021/04/10 09:58:20;;;;;;;14.85;6.87;;;;;;;13.55;33.39;100380.67;1750960;82;21111;-68
2021/04/10 10:00:51;;;;;;;9.88;7.45;;;;;;;13.52;33.60;100377.41;1749581;82;21888;-68
2021/04/10 10:03:22;;;;;;;16.97;7.50;;;;;;;13.53;33.86;100374.63;1750999;80;21818;-68
2021/04/10 10:05:53;;;;;;;10.13;6.50;;;;;;;13.56;33.45;100381.53;1747376;82;21313;-68
2021/04/10 10:08:23;;;;;;;18.27;7.20;;;;;;;13.50;32.67;100370.02;1750570;82;21647;-68
2021/04/10 10:10:52;;;;;;;12.23;7.00;;;;;;;13.43;33.64;100370.95;1745421;82;21158;-67
2021/04/10 10:13:31;;;;;;;16.87;8.85;;;;;;;13.47;33.02;100372.42;1751078;82;21598;-69
2021/04/10 10:15:59;;;;;;;11.10;7.28;;;;;;;13.52;33.06;100373.42;1747865;82;21323;-68
2021/04/10 10:18:41;;;;;;;7.97;5.62;;;;;;;13.57;32.64;100364.64;1750765;82;21595;-68
2021/04/10 10:21:16;;;;;;;;;;;;;;;13.56;31.75;100366.42;1753495;82;21166;-69
2021/04/10 10:26:27;;;;;;;17.07;7.20;;;;;;;13.44;32.95;100360.20;1812795;79;22068;-68
2021/04/10 10:29:05;;;;;;;9.13;6.33;;;;;;;13.47;33.28;100359.63;1765557;80;21172;-71
2021/04/10 10:31:42;;;;;;;10.65;6.40;;;;;;;13.55;33.09;100362.06;1773641;80;21579;-71
2021/04/10 10:34:12;;;;;;;9.35;6.37;;;;;;;13.55;32.18;100359.41;1767424;80;21307;-70
2021/04/10 10:36:42;;;;;;;8.40;5.97;;;;;;;13.48;32.49;100346.69;1772692;80;21385;-69
2021/04/10 10:39:32;;;;;;;8.50;5.60;;;;;;;13.44;32.69;100350.91;1767393;80;21134;-69
2021/04/10 10:42:01;;;;;;;11.03;6.87;;;;;;;13.48;32.37;100352.87;1772952;80;21162;-69
2021/04/10 10:44:28;;;;;;;10.60;6.35;;;;;;;13.53;32.92;100353.84;1767132;80;21218;-69
2021/04/10 10:47:02;;;;;;;15.10;7.25;;;;;;;13.64;33.46;100349.08;1760324;81;21616;-69
2021/04/10 10:49:30;;;;;;;12.65;7.10;;;;;;;13.75;33.36;100350.47;1770998;80;21091;-69
2021/04/10 10:51:58;;;;;;;13.45;7.87;;;;;;;13.75;32.98;100336.69;1771053;80;21279;-70
2021/04/10 10:54:31;;;;;;;9.60;6.92;;;;;;;13.75;32.98;100336.69;1783627;80;21138;-69
2021/04/10 10:56:58;;;;;;;10.27;6.87;;;;;;;13.67;32.65;100351.50;1761702;81;21184;-70
2021/04/10 10:59:28;;;;;;;17.05;7.45;;;;;;;13.57;32.62;100342.88;1761270;81;21175;-69
2021/04/10 11:01:56;;;;;;;14.75;7.55;;;;;;;13.54;33.22;100331.17;1756985;81;21565;-70
2021/04/10 11:04:29;;;;;;;19.20;8.60;;;;;;;13.59;33.02;100330.34;1722290;82;21186;-69
2021/04/10 11:07:01;;;;;;;12.80;7.83;;;;;;;13.68;33.01;100326.62;1723227;82;21109;-69
2021/04/10 11:09:37;;;;;;;14.00;8.88;;;;;;;13.73;32.91;100328.45;1737944;82;21106;-70
2021/04/10 11:12:15;;;;;;;22.87;7.78;;;;;;;13.71;32.83;100321.10;1724816;83;21178;-70
2021/04/10 12:49:08;;;;;;;11.70;8.25;;;;;;;15.00;29.17;100221.56;1780695;79;23139;-71
2021/04/10 12:51:36;;;;;;;14.03;6.53;;;;;;;15.08;28.04;100216.48;1786169;80;21161;-71
2021/04/10 12:54:04;;;;;;;14.00;6.10;;;;;;;14.94;28.32;100220.27;1761625;80;21172;-74
2021/04/10 12:56:32;;;;;;;9.63;5.97;;;;;;;14.80;29.10;100222.70;1760532;80;21743;-71
2021/04/10 12:58:59;;;;;;;10.65;5.90;;;;;;;14.72;28.97;100210.52;1770649;80;21085;-70
2021/04/10 13:01:26;;;;;;;21.20;7.25;;;;;;;14.65;29.20;100214.63;1788576;80;21184;-70
2021/04/10 13:03:53;;;;;;;10.23;6.60;;;;;;;14.64;30.86;100210.23;1763526;80;21160;-71
2021/04/10 13:06:22;;;;;;;9.38;6.45;;;;;;;14.65;30.43;100203.98;1758217;80;21632;-72
2021/04/10 13:08:50;;;;;;;12.15;7.55;;;;;;;14.57;30.42;100196.58;1759463;80;21184;-72
2021/04/10 13:11:17;;;;;;;8.18;5.72;;;;;;;14.47;30.54;100197.78;1763829;80;21393;-72
2021/04/10 13:13:45;;;;;;;15.75;10.18;;;;;;;14.43;29.57;100193.69;1773965;79;21274;-72